Time;durP1;ratioP1;P1;durP2;ratioP2;P2;SDS_P1;SDS_P2;PMS_P1;PMS_P2;Temp;Humidity;BMP_temperature;BMP_pressure;BME280_temperature;BME280_humidity;BME280_pressure;Samples;Min_cycle;Max_cycle;Signal;HPM_P1;HPM_P2
2023/08/19 00:00:07;;;;;;;;;;;26.70;49.90;;;26.32;48.53;101316.44;12245885;19;19919;-87
2023/08/19 00:04:15;;;;;;;;;;;26.70;50.00;;;26.20;48.36;101307.13;12247049;19;20327;-87
2023/08/19 00:08:19;;;;;;;;;;;26.60;50.10;;;26.23;48.36;101317.50;12245873;19;19919;-87
2023/08/19 00:12:21;;;;;;;;;;;26.60;50.10;;;25.89;48.49;101257.03;12244737;19;19915;-87
2023/08/19 00:16:22;;;;;;;;;;;26.60;50.20;;;25.99;48.46;101275.56;12246066;19;19911;-87
2023/08/19 00:20:27;;;;;;;;;;;26.60;50.20;;;26.12;48.49;101309.84;12247355;19;19918;-87
2023/08/19 00:24:29;;;;;;;;;;;26.60;50.20;;;26.24;48.30;101332.53;12245780;19;19914;-87
2023/08/19 00:28:31;;;;;;;;;;;26.60;50.20;;;26.18;48.50;101317.16;12244701;19;19936;-87
2023/08/19 00:32:33;;;;;;;;;;;26.60;50.20;;;26.20;48.86;101329.38;12242581;19;19926;-87
2023/08/19 00:36:35;;;;;;;;;;;26.60;50.20;;;26.16;48.68;101319.19;12242827;19;19927;-87
2023/08/19 00:40:36;;;;;;;;;;;26.60;50.20;;;26.10;48.62;101311.84;12251573;19;19914;-87
2023/08/19 00:44:38;;;;;;;;;;;26.60;50.20;;;26.05;48.70;101307.00;12258713;19;20333;-87
2023/08/19 00:48:40;;;;;;;;;;;26.60;50.20;;;26.02;48.86;101315.38;12255877;19;19982;-87
2023/08/19 00:52:43;;;;;;;;;;;26.50;50.10;;;25.89;48.81;101310.56;12252559;19;19926;-87
2023/08/19 00:56:45;;;;;;;;;;;26.40;50.00;;;25.87;48.58;101325.09;12253933;19;19939;-87
2023/08/19 01:00:47;;;;;;;;;;;26.30;50.00;;;25.76;48.69;101318.25;12256006;19;19927;-86
2023/08/19 01:04:48;;;;;;;;;;;26.30;50.10;;;25.68;48.82;101323.59;12255095;19;19923;-87
2023/08/19 01:09:12;;;;;;;;;;;26.10;50.10;;;25.67;48.81;101327.28;12252381;19;20283;-87
2023/08/19 01:13:15;;;;;;;;;;;26.10;50.10;;;25.52;48.73;101311.94;12251330;19;19915;-87
2023/08/19 01:17:21;;;;;;;;;;;26.00;50.10;;;25.53;48.79;101323.47;12253831;19;20331;-86
2023/08/19 01:21:23;;;;;;;;;;;25.90;50.30;;;25.38;48.91;101307.22;12255223;19;19906;-87
2023/08/19 01:25:25;;;;;;;;;;;25.90;50.40;;;25.39;49.20;101312.44;12253546;19;19918;-87
2023/08/19 01:29:29;;;;;;;;;;;25.80;50.40;;;25.30;48.95;101304.56;12249988;19;20350;-87
2023/08/19 01:33:31;;;;;;;;;;;25.80;50.40;;;25.14;49.12;101282.16;12254937;19;20305;-87
2023/08/19 01:37:52;;;;;;;;;;;25.80;50.50;;;25.25;49.21;101294.41;12252270;19;19919;-87
2023/08/19 01:41:55;;;;;;;;;;;25.70;50.50;;;25.26;49.14;101304.06;12255833;19;19915;-87
2023/08/19 01:45:57;;;;;;;;;;;25.70;50.60;;;25.30;49.39;101304.56;12252860;19;19922;-87
2023/08/19 01:49:59;;;;;;;;;;;25.70;50.60;;;25.23;49.19;101296.38;12254609;19;19911;-86
2023/08/19 01:54:02;;;;;;;;;;;25.70;50.60;;;25.10;49.11;101278.13;12254894;19;20348;-87
2023/08/19 01:58:03;;;;;;;;;;;25.60;50.60;;;25.01;49.50;101263.09;12251161;19;19915;-88
2023/08/19 02:02:05;;;;;;;;;;;25.70;50.60;;;24.97;49.38;101261.75;12251723;19;20332;-87
2023/08/19 02:06:07;;;;;;;;;;;25.60;50.70;;;25.09;49.42;101287.16;12250720;19;19919;-86
2023/08/19 02:10:10;;;;;;;;;;;25.60;50.60;;;25.11;49.54;101298.53;12250583;19;20302;-87
2023/08/19 02:14:13;;;;;;;;;;;25.50;50.60;;;25.03;49.32;101298.50;12251290;19;19931;-87
2023/08/19 02:18:15;;;;;;;;;;;25.50;50.70;;;25.04;49.19;101304.69;12249583;19;19947;-87
2023/08/19 02:22:20;;;;;;;;;;;25.50;50.90;;;25.00;49.23;101304.19;12252647;19;19923;-87
2023/08/19 02:26:22;;;;;;;;;;;25.40;50.70;;;24.88;49.69;101282.28;12249575;19;19915;-87
2023/08/19 02:30:24;;;;;;;;;;;25.40;50.70;;;24.94;49.32;101304.84;12250181;19;19910;-87
2023/08/19 02:34:26;;;;;;;;;;;25.40;50.80;;;24.87;49.59;101304.69;12249103;19;20261;-87
2023/08/19 02:38:28;;;;;;;;;;;25.30;50.60;;;24.84;49.88;101293.47;12249364;19;19939;-86
2023/08/19 02:42:29;;;;;;;;;;;25.30;50.80;;;24.53;49.37;101251.34;12252760;19;20334;-86
2023/08/19 02:46:31;;;;;;;;;;;25.30;50.80;;;24.68;49.66;101284.44;12251418;19;19932;-87
2023/08/19 02:50:33;;;;;;;;;;;25.20;50.80;;;24.75;49.71;101303.31;12249163;19;19911;-87
2023/08/19 02:54:35;;;;;;;;;;;25.20;50.80;;;24.71;49.88;101305.47;12249500;19;19947;-87
2023/08/19 02:58:36;;;;;;;;;;;25.10;50.80;;;24.58;49.53;101294.41;12248973;19;19986;-87
2023/08/19 03:02:38;;;;;;;;;;;25.10;50.80;;;24.60;49.60;101297.78;12246766;19;19982;-87
2023/08/19 03:06:40;;;;;;;;;;;25.10;51.00;;;24.41;49.93;101274.81;12247750;19;19911;-87
2023/08/19 03:10:42;;;;;;;;;;;25.10;51.10;;;24.57;50.08;101300.75;12248347;19;19919;-87
2023/08/19 03:14:44;;;;;;;;;;;25.00;51.00;;;24.52;49.74;101300.41;12249281;19;19974;-87
2023/08/19 03:18:46;;;;;;;;;;;25.00;51.10;;;24.46;49.74;101298.38;12247871;19;19923;-86
2023/08/19 03:22:47;;;;;;;;;;;25.00;51.10;;;24.51;50.16;101302.22;12250400;19;20321;-87
2023/08/19 03:26:49;;;;;;;;;;;25.00;51.50;;;24.27;50.05;101289.59;12247398;19;20316;-87
2023/08/19 03:30:51;;;;;;;;;;;24.90;51.10;;;24.40;50.37;101307.00;12246748;19;20359;-86
2023/08/19 03:34:53;;;;;;;;;;;24.90;51.20;;;24.15;50.04;101288.22;12247916;19;19925;-86
2023/08/19 03:38:54;;;;;;;;;;;24.90;51.10;;;24.31;49.88;101314.16;12244453;19;19978;-87
2023/08/19 03:42:56;;;;;;;;;;;24.90;51.20;;;24.28;49.95;101306.47;12247696;19;19911;-87
2023/08/19 03:46:57;;;;;;;;;;;24.80;51.20;;;24.35;50.20;101325.34;12247445;19;19918;-87
2023/08/19 03:50:59;;;;;;;;;;;24.80;51.20;;;24.28;50.46;101307.28;12246067;19;19910;-87
2023/08/19 03:55:01;;;;;;;;;;;24.80;51.20;;;24.36;50.52;101330.53;12248067;19;19918;-87
2023/08/19 03:59:04;;;;;;;;;;;24.80;51.20;;;24.28;50.56;101317.97;12244454;19;20310;-86
2023/08/19 04:03:06;;;;;;;;;;;24.80;51.20;;;24.13;50.08;101303.53;12247134;19;19932;-87
2023/08/19 04:07:08;;;;;;;;;;;24.80;51.30;;;24.31;50.50;101335.50;12245446;19;19919;-86
2023/08/19 04:11:09;;;;;;;;;;;24.80;51.30;;;24.18;50.07;101319.91;12245734;19;19961;-86
2023/08/19 04:15:11;;;;;;;;;;;24.80;51.30;;;24.20;50.38;101336.63;12245849;19;19919;-87
2023/08/19 04:19:13;;;;;;;;;;;24.80;51.30;;;24.12;50.55;101331.25;12243986;19;20385;-87
2023/08/19 04:23:14;;;;;;;;;;;24.70;51.30;;;24.08;50.58;101332.53;12247395;19;19923;-86
2023/08/19 04:27:16;;;;;;;;;;;24.70;51.30;;;24.02;49.96;101330.50;12242564;19;19918;-86
2023/08/19 04:31:18;;;;;;;;;;;24.70;51.40;;;24.03;50.19;101333.03;12243896;19;19922;-86
2023/08/19 04:35:32;;;;;;;;;;;24.70;51.50;;;24.00;50.34;101337.81;12243721;19;19952;-86
2023/08/19 04:39:33;;;;;;;;;;;24.60;51.60;;;23.97;50.31;101349.66;12240187;19;19930;-87
2023/08/19 04:43:46;;;;;;;;;;;24.60;51.90;;;23.97;50.37;101354.16;12245621;19;19918;-87
2023/08/19 04:47:49;;;;;;;;;;;24.50;51.90;;;23.91;50.83;101346.78;12242404;19;19922;-87
2023/08/19 04:51:52;;;;;;;;;;;24.50;52.00;;;23.93;50.71;101355.47;12242629;19;19933;-85
2023/08/19 04:55:59;;;;;;;;;;;24.50;52.00;;;23.98;50.50;101361.16;12162549;19;19947;-88
2023/08/19 05:00:00;;;;;;;;;;;24.60;52.10;;;24.00;50.82;101353.84;12136011;19;19943;-88
2023/08/19 05:04:02;;;;;;;;;;;24.50;52.10;;;24.03;50.81;101362.38;12136711;19;20620;-89
2023/08/19 05:08:04;;;;;;;;;;;24.60;52.20;;;24.05;50.71;101352.38;12133974;19;19929;-88
2023/08/19 05:12:06;;;;;;;;;;;24.70;52.40;;;24.08;50.75;101349.38;12130494;19;19934;-87
2023/08/19 05:16:08;;;;;;;;;;;24.60;52.50;;;24.10;51.22;101351.91;12133004;19;19951;-86
2023/08/19 05:20:10;;;;;;;;;;;24.70;52.50;;;24.15;51.04;101359.44;12134778;19;19922;-87
2023/08/19 05:24:12;;;;;;;;;;;24.70;52.60;;;24.20;51.22;101351.81;12135549;19;20363;-87
2023/08/19 05:28:13;;;;;;;;;;;24.80;52.90;;;24.26;51.16;101356.50;12143195;19;20207;-87
2023/08/19 05:32:15;;;;;;;;;;;24.80;52.70;;;24.26;51.04;101343.97;12146242;19;20186;-85
2023/08/19 05:36:17;;;;;;;;;;;24.90;52.70;;;24.28;51.31;101350.00;12148313;19;19987;-91
2023/08/19 05:40:18;;;;;;;;;;;24.90;53.10;;;24.40;51.39;101358.56;12149027;19;19947;-89
2023/08/19 05:44:19;;;;;;;;;;;25.00;52.80;;;24.46;51.62;101357.13;12148579;19;19947;-88
2023/08/19 05:48:21;;;;;;;;;;;25.10;53.40;;;24.49;51.45;101356.78;12141308;19;20238;-86
2023/08/19 05:52:22;;;;;;;;;;;25.20;53.10;;;24.62;51.21;101364.38;12140180;19;19930;-87
2023/08/19 05:56:24;;;;;;;;;;;25.20;53.70;;;24.67;51.36;101357.53;12144070;19;20902;-88
2023/08/19 06:00:25;;;;;;;;;;;25.30;53.50;;;24.69;51.45;101354.72;12143348;19;19927;-88
2023/08/19 06:04:27;;;;;;;;;;;25.40;53.30;;;24.75;51.51;101348.72;12143783;19;19933;-88
2023/08/19 06:08:29;;;;;;;;;;;25.50;53.90;;;24.88;51.51;101351.75;12138479;19;19934;-85
2023/08/19 06:12:30;;;;;;;;;;;25.60;53.70;;;25.04;51.75;101361.66;12145776;19;20390;-86
2023/08/19 06:16:32;;;;;;;;;;;25.70;54.00;;;25.11;52.05;101353.81;12145644;19;19927;-86
2023/08/19 06:20:34;;;;;;;;;;;25.90;54.50;;;25.23;52.06;101360.56;12147911;19;20673;-85
2023/08/19 06:24:36;;;;;;;;;;;25.90;53.60;;;25.26;51.60;101362.88;12144876;19;20286;-86
2023/08/19 06:28:37;;;;;;;;;;;26.00;53.60;;;25.21;52.10;101349.19;12145132;19;19919;-86
2023/08/19 06:32:39;;;;;;;;;;;26.10;53.50;;;25.45;51.95;101376.94;12138137;19;19946;-85
2023/08/19 06:36:42;;;;;;;;;;;26.20;53.60;;;25.46;52.09;101379.44;12139474;19;20034;-86
2023/08/19 06:41:09;;;;;;;;;;;26.20;53.90;;;25.54;51.90;101383.97;12142359;19;20801;-85
2023/08/19 06:45:11;;;;;;;;;;;26.30;54.30;;;25.53;51.68;101380.47;12145825;19;19957;-86
2023/08/19 06:49:13;;;;;;;;;;;26.30;53.40;;;25.60;51.98;101392.19;12140069;19;19926;-88
2023/08/19 06:53:14;;;;;;;;;;;26.30;53.60;;;25.59;52.23;101386.97;12142738;19;19991;-86
2023/08/19 06:57:33;;;;;;;;;;;26.40;53.50;;;25.70;51.78;101394.66;12143753;19;19923;-86
2023/08/19 07:01:37;;;;;;;;;;;26.40;53.50;;;25.68;51.97;101387.81;12141155;19;20319;-86
2023/08/19 07:05:39;;;;;;;;;;;26.50;53.40;;;25.65;51.78;101380.94;12142826;19;20695;-86
2023/08/19 07:09:41;;;;;;;;;;;26.50;53.40;;;25.80;52.20;101407.88;12137715;19;19933;-87
2023/08/19 07:13:43;;;;;;;;;;;26.50;53.50;;;25.61;51.95;101369.75;12143520;19;20022;-86
2023/08/19 07:17:50;;;;;;;;;;;26.60;54.00;;;25.69;51.78;101379.63;12140758;19;19927;-86
2023/08/19 07:21:54;;;;;;;;;;;26.60;54.00;;;25.89;52.24;101414.09;12143093;19;19922;-87
2023/08/19 07:25:57;;;;;;;;;;;26.70;53.80;;;25.99;51.81;101422.78;12135592;19;19926;-86
2023/08/19 07:29:59;;;;;;;;;;;26.70;53.50;;;26.05;52.23;101428.28;12127953;19;20423;-86
2023/08/19 07:34:00;;;;;;;;;;;26.70;53.60;;;26.14;52.09;101418.44;12135739;19;19935;-87
2023/08/19 07:38:02;;;;;;;;;;;26.90;53.80;;;26.25;52.18;101419.91;12135961;19;20487;-87
2023/08/19 07:42:04;;;;;;;;;;;27.00;53.90;;;26.41;52.38;101421.69;12136787;19;19931;-86
2023/08/19 07:46:06;;;;;;;;;;;27.10;54.30;;;26.56;52.26;101429.91;12140511;19;19919;-84
2023/08/19 07:50:08;;;;;;;;;;;27.30;54.20;;;26.65;52.71;101415.44;12140258;19;20834;-85
2023/08/19 07:54:12;;;;;;;;;;;27.50;54.00;;;26.82;52.46;101414.41;12142600;19;19918;-85
2023/08/19 07:58:13;;;;;;;;;;;27.70;54.40;;;27.00;52.57;101416.81;12139283;19;19943;-85
2023/08/19 08:02:15;;;;;;;;;;;27.90;54.30;;;27.27;52.38;101425.41;12140639;19;19922;-85
2023/08/19 08:06:17;;;;;;;;;;;28.00;54.60;;;27.43;52.69;101425.28;12144728;19;20500;-85
2023/08/19 08:10:18;;;;;;;;;;;28.20;54.10;;;27.55;52.36;101406.94;12146208;19;19946;-84
2023/08/19 08:14:20;;;;;;;;;;;28.40;54.20;;;27.78;52.59;101409.59;12140424;19;19941;-85
2023/08/19 08:18:21;;;;;;;;;;;28.60;54.10;;;27.98;52.63;101416.16;12138241;19;20188;-85
2023/08/19 08:22:23;;;;;;;;;;;28.80;54.00;;;28.14;52.58;101406.25;12140092;19;19922;-84
2023/08/19 08:26:24;;;;;;;;;;;29.10;54.30;;;28.44;52.73;101418.72;12138404;19;19922;-85
2023/08/19 08:30:26;;;;;;;;;;;29.30;53.90;;;28.53;52.91;101402.50;12138869;19;20567;-85
2023/08/19 08:34:27;;;;;;;;;;;29.50;53.60;;;28.79;52.42;101415.47;12143166;19;20737;-85
2023/08/19 08:38:29;;;;;;;;;;;29.70;53.50;;;28.98;52.84;101422.09;12144254;19;19945;-84
2023/08/19 08:42:30;;;;;;;;;;;29.90;53.50;;;29.11;52.99;101412.38;12140555;19;19954;-85
2023/08/19 08:46:33;;;;;;;;;;;30.10;53.50;;;29.30;52.56;101404.66;12138199;19;19922;-86
2023/08/19 08:50:35;;;;;;;;;;;30.30;53.00;;;29.41;52.27;101400.63;12137135;19;20651;-85
2023/08/19 08:54:39;;;;;;;;;;;30.40;52.20;;;29.56;52.56;101417.56;12138510;19;19927;-85
2023/08/19 08:58:40;;;;;;;;;;;30.50;52.00;;;29.65;52.09;101413.75;12135360;19;19926;-85
2023/08/19 09:02:43;;;;;;;;;;;30.70;52.40;;;29.85;52.41;101419.28;12143969;19;20245;-85
2023/08/19 09:06:47;;;;;;;;;;;30.80;52.50;;;29.88;52.35;101408.13;12147128;19;19926;-87
2023/08/19 09:10:49;;;;;;;;;;;30.90;52.50;;;30.05;52.20;101408.66;12148960;19;19918;-85
2023/08/19 09:14:54;;;;;;;;;;;31.10;52.40;;;30.20;52.20;101413.94;12151662;19;20479;-85
2023/08/19 09:18:56;;;;;;;;;;;31.20;52.00;;;30.33;52.02;101422.16;12146640;19;19922;-86
2023/08/19 09:23:08;;;;;;;;;;;31.30;51.90;;;30.43;51.64;101416.38;12158592;19;20542;-85
2023/08/19 09:27:09;;;;;;;;;;;31.40;51.00;;;30.61;51.54;101426.66;12149363;19;19919;-86
2023/08/19 09:31:21;;;;;;;;;;;31.50;52.00;;;30.68;51.95;101414.03;12149393;19;19951;-86
2023/08/19 09:35:22;;;;;;;;;;;31.70;51.40;;;30.69;51.44;101394.13;12152091;19;19919;-86
2023/08/19 09:39:33;;;;;;;;;;;31.80;50.90;;;30.92;51.93;101410.00;12148736;19;19919;-85
2023/08/19 09:43:39;;;;;;;;;;;31.90;51.60;;;31.05;51.70;101409.19;12154710;19;20275;-85
2023/08/19 09:47:47;;;;;;;;;;;32.10;51.80;;;31.25;51.53;101420.88;12153873;19;20775;-85
2023/08/19 09:51:54;;;;;;;;;;;32.20;50.90;;;31.34;51.18;101408.03;12148965;19;19936;-85
2023/08/19 09:55:55;;;;;;;;;;;32.30;49.00;;;31.46;51.30;101402.88;12150454;19;19927;-86
2023/08/19 09:59:57;;;;;;;;;;;32.40;50.80;;;31.58;50.97;101403.09;12155656;19;20231;-86
2023/08/19 10:03:59;;;;;;;;;;;32.50;50.30;;;31.68;51.06;101407.03;12151115;19;19931;-86
2023/08/19 10:08:03;;;;;;;;;;;32.60;50.80;;;31.83;51.10;101408.69;12151799;19;19919;-85
2023/08/19 10:12:06;;;;;;;;;;;32.70;48.80;;;31.86;50.84;101397.47;12147693;19;19918;-86
2023/08/19 10:16:08;;;;;;;;;;;32.80;48.90;;;31.98;50.77;101403.94;12147218;19;20273;-85
2023/08/19 10:20:12;;;;;;;;;;;32.90;50.20;;;32.05;50.71;101390.41;12144502;19;19930;-86
2023/08/19 10:24:16;;;;;;;;;;;33.00;49.40;;;32.20;50.85;101396.41;12145838;19;20762;-85
2023/08/19 10:28:25;;;;;;;;;;;33.10;50.20;;;32.34;50.34;101398.03;12145577;19;19927;-86
2023/08/19 10:32:28;;;;;;;;;;;33.20;50.60;;;32.42;50.67;101393.44;12145307;19;20379;-85
2023/08/19 10:36:30;;;;;;;;;;;33.30;50.50;;;32.61;50.73;101393.38;12145820;19;20875;-86
2023/08/19 10:40:33;;;;;;;;;;;33.50;50.50;;;32.68;49.76;101387.97;12154105;19;19964;-88
2023/08/19 10:44:37;;;;;;;;;;;33.60;50.00;;;32.81;50.43;101387.03;12141866;19;19933;-86
2023/08/19 10:48:44;;;;;;;;;;;33.70;47.40;;;32.91;49.78;101392.81;12143027;19;20221;-86
2023/08/19 10:53:06;;;;;;;;;;;33.80;49.60;;;32.92;49.85;101380.97;12147285;19;19925;-85
2023/08/19 10:57:09;;;;;;;;;;;33.90;50.00;;;33.05;49.91;101386.34;12142244;19;20374;-86
2023/08/19 11:01:11;;;;;;;;;;;33.90;49.50;;;33.11;49.90;101386.50;12149526;19;19923;-85
2023/08/19 11:05:13;;;;;;;;;;;34.00;48.90;;;33.05;49.39;101361.97;12148309;19;19980;-87
2023/08/19 11:09:14;;;;;;;;;;;34.00;47.20;;;33.18;49.71;101380.00;12143529;19;20455;-83
2023/08/19 11:13:16;;;;;;;;;;;34.10;48.60;;;33.27;49.23;101380.56;12129988;19;20030;-85
2023/08/19 11:17:26;;;;;;;;;;;34.10;49.30;;;33.37;49.41;101385.50;12142473;19;19968;-85
2023/08/19 11:21:27;;;;;;;;;;;34.20;49.00;;;33.41;49.27;101374.00;12146570;19;20173;-85
2023/08/19 11:25:36;;;;;;;;;;;34.20;48.60;;;33.46;48.92;101376.88;12146328;19;19930;-84
2023/08/19 11:29:39;;;;;;;;;;;34.20;48.50;;;33.55;48.73;101385.59;12142206;19;19946;-84
2023/08/19 11:33:42;;;;;;;;;;;34.30;48.30;;;33.59;49.00;101383.25;12140700;19;20034;-84
2023/08/19 11:37:44;;;;;;;;;;;34.40;48.20;;;33.73;48.90;101387.53;12143876;19;19925;-86
2023/08/19 11:41:47;;;;;;;;;;;34.50;48.40;;;33.74;48.50;101380.22;12148257;19;19939;-86
2023/08/19 11:45:49;;;;;;;;;;;34.60;48.80;;;33.79;48.66;101378.50;12138710;19;19919;-83
2023/08/19 11:49:51;;;;;;;;;;;34.60;48.50;;;33.75;48.37;101355.59;12136934;19;20184;-85
2023/08/19 11:54:05;;;;;;;;;;;34.70;48.60;;;34.03;48.47;101386.81;12135837;19;21067;-85
2023/08/19 11:58:06;;;;;;;;;;;34.80;48.80;;;34.10;48.47;101384.88;12129681;19;20205;-85
2023/08/19 12:02:09;;;;;;;;;;;34.90;47.30;;;34.09;48.03;101359.66;12138979;19;19915;-85
2023/08/19 12:06:11;;;;;;;;;;;34.90;48.00;;;34.26;47.97;101375.31;12124197;19;20733;-85
2023/08/19 12:10:15;;;;;;;;;;;35.00;47.70;;;34.24;48.02;101356.59;12129568;19;20165;-84
2023/08/19 12:14:17;;;;;;;;;;;35.10;44.50;;;34.37;47.75;101369.13;12129239;19;19922;-84
2023/08/19 12:18:18;;;;;;;;;;;35.10;48.10;;;34.40;47.70;101371.38;12132796;19;20260;-84
2023/08/19 12:22:20;;;;;;;;;;;35.20;48.10;;;34.46;47.83;101366.94;12138765;19;19943;-83
2023/08/19 12:26:21;;;;;;;;;;;35.20;46.40;;;34.44;47.55;101363.66;12134838;19;19923;-84
2023/08/19 12:30:22;;;;;;;;;;;35.20;46.10;;;34.47;47.53;101363.19;12133419;19;19942;-82
2023/08/19 12:34:24;;;;;;;;;;;35.30;47.80;;;34.52;47.63;101375.00;12139815;19;19926;-83
2023/08/19 12:38:25;;;;;;;;;;;35.30;48.00;;;34.56;47.47;101364.50;12142625;19;20260;-85
2023/08/19 12:42:26;;;;;;;;;;;35.30;47.50;;;34.57;47.18;101363.50;12152334;19;20017;-84
2023/08/19 12:46:31;;;;;;;;;;;35.40;47.30;;;34.68;47.34;101368.16;12146093;19;19983;-85
2023/08/19 12:50:33;;;;;;;;;;;35.40;45.00;;;34.67;47.11;101352.09;12134875;19;20275;-84
2023/08/19 12:54:34;;;;;;;;;;;35.50;46.30;;;34.74;46.93;101364.50;12135709;19;19951;-84
2023/08/19 12:58:36;;;;;;;;;;;35.50;40.70;;;34.74;46.74;101363.69;12108797;19;19959;-83
2023/08/19 13:02:38;;;;;;;;;;;35.50;46.50;;;34.78;46.71;101368.44;12129304;19;19911;-83
2023/08/19 13:06:41;;;;;;;;;;;35.50;46.10;;;34.80;46.25;101365.47;12133618;19;20515;-83
2023/08/19 13:10:42;;;;;;;;;;;35.50;46.60;;;34.83;46.46;101354.16;12135506;19;20509;-83
2023/08/19 13:14:44;;;;;;;;;;;35.60;46.70;;;34.92;46.44;101358.22;12121864;19;19930;-82
2023/08/19 13:18:45;;;;;;;;;;;35.60;46.90;;;34.99;46.59;101358.09;12130330;19;20412;-83
2023/08/19 13:22:55;;;;;;;;;;;35.70;46.40;;;35.06;46.09;101367.00;12119514;19;20364;-83
2023/08/19 13:26:57;;;;;;;;;;;35.70;45.00;;;35.08;46.37;101367.63;12120076;19;20024;-83
2023/08/19 13:30:58;;;;;;;;;;;35.70;43.70;;;35.03;46.05;101362.84;12119515;19;19926;-85
2023/08/19 13:34:59;;;;;;;;;;;35.80;46.00;;;35.05;46.07;101365.31;12113078;19;20288;-83
2023/08/19 13:39:00;;;;;;;;;;;35.70;41.00;;;35.01;45.77;101364.13;12116183;19;19947;-84
2023/08/19 13:43:03;;;;;;;;;;;35.70;45.80;;;35.07;45.71;101357.81;12128820;19;20303;-83
2023/08/19 13:47:04;;;;;;;;;;;35.70;45.80;;;35.02;45.73;101344.88;12136270;19;19922;-84
2023/08/19 13:51:06;;;;;;;;;;;35.70;46.20;;;35.15;45.62;101356.66;12124485;19;19952;-86
2023/08/19 13:55:09;;;;;;;;;;;35.80;46.30;;;35.17;45.63;101347.22;12134048;19;20435;-83
2023/08/19 13:59:10;;;;;;;;;;;35.80;45.50;;;35.22;45.36;101347.34;12136214;19;20688;-84
2023/08/19 14:03:11;;;;;;;;;;;35.90;46.10;;;35.26;45.61;101344.16;12130369;19;20742;-84
2023/08/19 14:07:13;;;;;;;;;;;35.80;45.30;;;35.28;45.45;101336.59;12127256;19;20288;-83
2023/08/19 14:11:14;;;;;;;;;;;35.90;44.10;;;35.21;45.22;101326.69;12129900;19;19922;-84
2023/08/19 14:15:15;;;;;;;;;;;35.90;45.00;;;35.31;45.09;101325.25;12130547;19;19915;-84
2023/08/19 14:19:17;;;;;;;;;;;35.90;45.50;;;35.34;45.23;101324.78;12126848;19;19943;-84
2023/08/19 14:23:18;;;;;;;;;;;36.00;45.30;;;35.35;44.76;101321.00;12138258;19;20268;-84
2023/08/19 14:27:20;;;;;;;;;;;36.00;44.50;;;35.38;44.74;101320.56;12133397;19;20637;-84
2023/08/19 14:31:22;;;;;;;;;;;36.00;45.50;;;35.41;44.69;101314.66;12143610;19;19926;-85
2023/08/19 14:35:23;;;;;;;;;;;36.00;44.60;;;35.45;44.71;101310.38;12131160;19;19923;-83
2023/08/19 14:39:25;;;;;;;;;;;36.00;45.60;;;35.43;44.46;101304.34;12141662;19;19918;-85
2023/08/19 14:43:26;;;;;;;;;;;36.10;44.50;;;35.49;44.40;101308.03;12140302;19;20231;-84
2023/08/19 14:47:27;;;;;;;;;;;36.10;44.70;;;35.49;44.43;101295.28;12141226;19;19918;-83
2023/08/19 14:51:29;;;;;;;;;;;36.10;45.20;;;35.46;44.59;101290.31;12141826;19;19930;-83
2023/08/19 14:55:30;;;;;;;;;;;36.10;44.90;;;35.49;44.57;101298.00;12137465;19;19923;-83
2023/08/19 14:59:32;;;;;;;;;;;36.10;44.60;;;35.52;44.42;101294.81;12135917;19;19951;-85
2023/08/19 15:03:33;;;;;;;;;;;36.10;45.20;;;35.42;44.03;101278.25;12141499;19;20316;-83
2023/08/19 15:08:32;;;;;;;;;;;36.10;45.20;;;35.20;44.17;101245.44;12172964;19;19937;-87
2023/08/19 15:13:07;;;;;;;;;;;36.10;45.20;;;35.62;44.12;101313.25;12159815;19;19930;-84
2023/08/19 15:23:00;;;;;;;;;;;36.20;44.80;;;35.41;43.84;101295.63;12162399;19;19918;-87
2023/08/19 15:27:05;;;;;;;;;;;36.10;44.80;;;35.56;43.87;101323.13;12065307;19;19922;-85
2023/08/19 15:31:07;;;;;;;;;;;36.10;45.00;;;35.52;43.71;101316.53;12120584;19;19927;-86
2023/08/19 15:35:08;;;;;;;;;;;36.10;44.90;;;35.46;43.48;101312.06;12123436;19;19946;-84
2023/08/19 15:39:09;;;;;;;;;;;36.00;44.70;;;35.50;43.61;101324.09;12126319;19;20299;-85
2023/08/19 15:43:11;;;;;;;;;;;36.00;45.10;;;35.45;43.35;101324.78;12125078;19;19926;-84
2023/08/19 15:47:13;;;;;;;;;;;35.90;44.90;;;35.36;43.57;101309.91;12117794;19;19954;-85
2023/08/19 15:51:15;;;;;;;;;;;35.90;44.80;;;35.37;43.45;101321.59;12130926;19;19923;-85
2023/08/19 15:55:17;;;;;;;;;;;35.80;45.40;;;35.32;43.33;101322.28;12129486;19;19949;-84
2023/08/19 15:59:18;;;;;;;;;;;35.80;45.80;;;35.19;43.32;101295.38;12134982;19;20490;-84
2023/08/19 16:03:20;;;;;;;;;;;35.70;45.60;;;35.21;43.65;101313.09;12134930;19;20244;-84
2023/08/19 16:07:35;;;;;;;;;;;35.60;44.20;;;35.19;43.46;101315.22;12130831;19;20474;-86
2023/08/19 16:11:36;;;;;;;;;;;35.60;44.90;;;35.11;43.23;101310.13;12130411;19;19923;-84
2023/08/19 16:15:37;;;;;;;;;;;35.60;45.30;;;35.14;43.43;101325.13;12130384;19;20448;-85
2023/08/19 16:19:39;;;;;;;;;;;35.60;45.50;;;35.09;43.28;101328.53;12132638;19;19923;-84
2023/08/19 16:23:40;;;;;;;;;;;35.50;44.90;;;34.99;43.22;101317.38;12131327;19;20649;-83
2023/08/19 16:27:42;;;;;;;;;;;35.40;45.20;;;34.98;43.57;101329.31;12135723;19;19929;-85
2023/08/19 16:31:43;;;;;;;;;;;35.30;45.30;;;34.93;43.62;101332.72;12135218;19;20752;-86
2023/08/19 16:35:45;;;;;;;;;;;35.30;45.50;;;34.85;43.19;101318.66;12136162;19;20793;-85
2023/08/19 16:39:47;;;;;;;;;;;35.20;45.70;;;34.88;43.45;101332.59;12146168;19;19919;-84
2023/08/19 16:43:49;;;;;;;;;;;35.20;45.80;;;34.46;43.25;101282.84;12143339;19;19937;-85
2023/08/19 16:47:51;;;;;;;;;;;35.10;46.00;;;34.73;43.50;101324.06;12126075;19;20274;-85
2023/08/19 16:51:54;;;;;;;;;;;35.10;46.00;;;34.76;43.28;101339.88;12134615;19;19926;-86
2023/08/19 16:56:00;;;;;;;;;;;35.10;46.10;;;34.60;43.19;101319.63;12136680;19;19947;-84
2023/08/19 17:00:03;;;;;;;;;;;35.00;46.00;;;34.56;43.68;101340.09;12138360;19;20708;-84
2023/08/19 17:04:05;;;;;;;;;;;34.90;46.10;;;34.44;43.49;101333.81;12137395;19;20560;-84
2023/08/19 17:08:06;;;;;;;;;;;34.80;46.10;;;34.32;43.43;101329.16;12135768;19;19926;-84
2023/08/19 17:12:08;;;;;;;;;;;34.70;46.20;;;34.31;43.20;101342.94;12135625;19;20451;-84
2023/08/19 17:16:10;;;;;;;;;;;34.60;46.20;;;34.17;43.67;101333.31;12135735;19;20173;-84
2023/08/19 17:20:13;;;;;;;;;;;34.50;46.20;;;34.10;43.74;101347.75;12141922;19;20798;-86
2023/08/19 17:24:17;;;;;;;;;;;34.40;46.20;;;34.01;43.64;101348.25;12147213;19;21003;-85
2023/08/19 17:28:18;;;;;;;;;;;34.30;46.30;;;33.89;43.30;101345.44;12150200;19;20221;-84
2023/08/19 17:32:20;;;;;;;;;;;34.20;46.30;;;33.67;43.56;101324.19;12140329;19;20451;-85
2023/08/19 17:36:22;;;;;;;;;;;34.00;46.20;;;33.67;43.55;101348.56;12146101;19;20401;-85
2023/08/19 17:40:23;;;;;;;;;;;33.90;46.20;;;33.23;43.74;101295.41;12152231;19;19938;-84
2023/08/19 17:44:27;;;;;;;;;;;33.80;46.10;;;33.45;43.54;101347.28;12147776;19;19923;-84
2023/08/19 17:48:29;;;;;;;;;;;33.70;46.00;;;33.33;43.67;101351.78;12144272;19;20224;-85
2023/08/19 17:52:31;;;;;;;;;;;33.60;46.10;;;33.23;43.57;101347.69;12143807;19;19937;-85
2023/08/19 17:56:32;;;;;;;;;;;33.50;46.10;;;33.13;43.75;101355.44;12144797;19;20419;-85
2023/08/19 18:00:34;;;;;;;;;;;33.40;46.10;;;33.01;43.66;101347.22;12148722;19;19947;-85
2023/08/19 18:04:35;;;;;;;;;;;33.30;46.20;;;32.95;43.39;101355.34;12142676;19;19944;-84
2023/08/19 18:08:36;;;;;;;;;;;33.20;46.20;;;32.78;43.52;101342.34;12147084;19;20268;-84
2023/08/19 18:12:38;;;;;;;;;;;33.10;46.30;;;32.70;43.62;101355.25;12144516;19;20201;-85
2023/08/19 18:16:39;;;;;;;;;;;32.90;46.20;;;32.55;44.08;101350.97;12140641;19;20463;-86